Blossvale, NY (13308)

4:44 PM EDT on April 27, 2015 (GMT -0400)
Upper Southbay on Oneida Lake, NY | | Change Station
CLOSE
Current Station
Personal Weather Station
Location: Canastota, NY
Elevation: 384 ft
Nearby Weather Stations

Elev 384 ft 43.16 °N, 75.75 °W | Updated 14 minutes ago

Overcast
Overcast
48.9 °F
Feels Like 45 °F
N
8.3
Wind Variable Wind from WNW

Today
High -- | Low -- °F
--% Chance of Precip.
Yesterday
High -- | Low -- °F
Precip. -- in
6:02 AM 7:59 PM
Waxing Gibbous, 67% visible
Pressure 29.78 in
Visibility 10.0 miles
Clouds Overcast 4200 ft
Windchill 45 °F
Dew Point 40 °F
Humidity 70%
Rainfall 0.00 in
Snow Depth Not available.
UV 2 out of 12
Pollen 8.30 out of 12
Air Quality Not available.
Flu Activity Widespread
METAR KRME 271953Z 30013KT 10SM OVC042 09/02 A2977 RMK AO2 SLP083 T00940022

More Conditions Fewer Conditions

Pressure 29.78 in
Visibility 10.0 miles
Clouds Overcast 4200 ft
Windchill 45 °F
Dew Point 40 °F
Humidity 70%
Rainfall 0.00 in
Snow Depth Not available.
UV 2 out of 12
Pollen 8.30 out of 12
Air Quality Not available.
Flu Activity Widespread
METAR KRME 271953Z 30013KT 10SM OVC042 09/02 A2977 RMK AO2 SLP083 T00940022

More Conditions Fewer Conditions

10-Day Weather Forecast

Almanac

Astronomy

Apr. 27, 2015 Rise Set
Actual Time
Civil Twilight
Nautical Twilight
Astronomical Twilight
Moon
Length of Visible Light
Length of Day
Tomorrow will be .
, % of the Moon is Illuminated

Today's Extremes

State Highs State Lows

Community

WunderPhotos

Upload Photos

1,817,421 photos uploaded!

WunderBlogs® & News

Nearby

Air Quality

  Air Quality AQ Index Pollutant
Not available.

Snow Depth

Station Depth Elevation

Earthquake Activity

City Distance Mag. Time & Date
Minimum magnitude displayed is 2.5.

Coastal Water Temperatures

Place Temperature

Stations

Nearby Weather Stations

Station Location Temp. Windchill Dew Point Humidity Wind Precip. Elev Updated Type